< < Back
Terminal Aerodrome Forecast


Current Version              Previous Versions:   1  2  3  4  5  6  7  8  9  

Terminal Aerodrome Forecast

468
FTUS42 KFFC 011800 AAA
TAFMCN
TAF AMD
KMCN 011810Z 0118/0218 VRB04KT P6SM VCSH SCT050 SCT150
     FM012200 24007KT P6SM SCT050 SCT150
     FM020100 20003KT P6SM FEW060 SCT150
     FM021400 29005KT P6SM SCT035 SCT150=

Latest METAR

976
SAUS80 KWBC 020100
MTRMCN
METAR KMCN 020053Z AUTO 08006G14KT 10SM -RA SCT048 BKN060 24/23 A3012
RMK AO2 RAB2354E03B28 SLP195 P0000 T02390233 TSNO


USA.gov is the U.S. government's official web portal to all federal, state and local government web resources and services.